createdAt,value
2023-05-09T00:00:19.613Z,4.68
2023-05-09T00:01:19.660Z,4.74
2023-05-09T00:02:19.752Z,4.74
2023-05-09T00:03:19.759Z,4.71
2023-05-09T00:04:19.867Z,4.68
2023-05-09T00:05:19.839Z,4.63
2023-05-09T00:06:19.933Z,4.66
2023-05-09T00:07:19.802Z,4.64
2023-05-09T00:08:19.865Z,4.66
2023-05-09T00:09:19.859Z,4.65
2023-05-09T00:10:19.941Z,4.64
2023-05-09T00:11:19.919Z,4.63
2023-05-09T00:12:19.954Z,4.64
2023-05-09T00:13:20.063Z,4.60
2023-05-09T00:14:20.004Z,4.62
2023-05-09T00:15:20.052Z,4.55
2023-05-09T00:16:20.116Z,4.57
2023-05-09T00:17:20.108Z,4.57
2023-05-09T00:18:20.155Z,4.50
2023-05-09T00:19:20.160Z,4.48
2023-05-09T00:20:20.193Z,4.49
2023-05-09T00:21:20.329Z,4.49
2023-05-09T00:22:20.314Z,4.50
2023-05-09T00:23:20.343Z,4.56
2023-05-09T00:24:20.386Z,4.57
2023-05-09T00:25:20.440Z,4.52
2023-05-09T00:26:20.494Z,4.54
2023-05-09T00:27:20.555Z,4.50
2023-05-09T00:28:20.618Z,4.47
2023-05-09T00:29:20.630Z,4.46
2023-05-09T00:30:20.672Z,4.42
2023-05-09T00:31:20.667Z,4.42
2023-05-09T00:32:20.760Z,4.48
2023-05-09T00:33:20.766Z,4.51
2023-05-09T00:34:20.801Z,4.42
2023-05-09T00:35:20.809Z,4.45
2023-05-09T00:36:20.882Z,4.48
2023-05-09T00:37:20.978Z,4.42
2023-05-09T00:38:20.916Z,4.43
2023-05-09T00:39:20.997Z,4.42
2023-05-09T00:40:21.017Z,4.42
2023-05-09T00:41:21.008Z,4.39
2023-05-09T00:42:21.052Z,4.42
2023-05-09T00:43:21.081Z,4.39
2023-05-09T00:44:21.147Z,4.39
2023-05-09T00:45:21.146Z,4.34
2023-05-09T00:46:21.234Z,4.34
2023-05-09T00:47:21.290Z,4.31
2023-05-09T00:48:21.222Z,4.30
2023-05-09T00:49:21.278Z,4.35
2023-05-09T00:50:21.286Z,4.32
2023-05-09T00:51:21.359Z,4.37
2023-05-09T00:52:21.407Z,4.35
2023-05-09T00:53:21.468Z,4.36
2023-05-09T00:54:21.407Z,4.32
2023-05-09T00:55:21.443Z,4.35
2023-05-09T00:56:21.461Z,4.35
2023-05-09T00:57:21.590Z,4.32
2023-05-09T00:58:21.546Z,4.28
2023-05-09T00:59:21.600Z,4.22
2023-05-09T01:00:21.917Z,4.24
2023-05-09T01:01:21.777Z,4.17
2023-05-09T01:02:21.814Z,4.17
2023-05-09T01:03:21.852Z,4.19
2023-05-09T01:04:21.799Z,4.19
2023-05-09T01:05:21.798Z,4.18
2023-05-09T01:06:21.838Z,4.21
2023-05-09T01:07:22.057Z,4.22
2023-05-09T01:08:21.930Z,4.16
2023-05-09T01:09:22.057Z,4.26
2023-05-09T01:10:21.997Z,4.13
2023-05-09T01:11:22.080Z,4.18
2023-05-09T01:12:22.154Z,4.15
2023-05-09T01:13:22.261Z,4.12
2023-05-09T01:14:22.211Z,4.13
2023-05-09T01:15:22.228Z,4.16
2023-05-09T01:16:22.304Z,4.19
2023-05-09T01:17:22.336Z,4.21
2023-05-09T01:18:22.407Z,4.11
2023-05-09T01:19:22.450Z,4.10
2023-05-09T01:20:22.523Z,4.10
2023-05-09T01:21:22.554Z,4.11
2023-05-09T01:22:22.600Z,4.15
2023-05-09T01:23:22.650Z,4.13
2023-05-09T01:24:22.699Z,4.08
2023-05-09T01:25:22.789Z,4.01
2023-05-09T01:26:22.750Z,4.03
2023-05-09T01:27:22.797Z,4.06
2023-05-09T01:28:22.824Z,4.05
2023-05-09T01:29:22.890Z,4.06
2023-05-09T01:30:22.925Z,4.07
2023-05-09T01:31:23.025Z,4.07
2023-05-09T01:32:23.116Z,4.05
2023-05-09T01:33:23.120Z,4.00
2023-05-09T01:34:23.159Z,3.97
2023-05-09T01:35:23.232Z,4.04
2023-05-09T01:36:23.254Z,4.04
2023-05-09T01:37:23.342Z,4.01
2023-05-09T01:38:23.376Z,4.02
2023-05-09T01:39:23.463Z,4.00
2023-05-09T01:40:23.510Z,3.96
2023-05-09T01:41:23.644Z,3.98
2023-05-09T01:42:23.520Z,4.02
2023-05-09T01:43:23.607Z,4.03
2023-05-09T01:44:23.639Z,4.00
2023-05-09T01:45:23.690Z,3.99
2023-05-09T01:46:23.721Z,4.00
2023-05-09T01:47:23.717Z,3.94
2023-05-09T01:48:23.744Z,3.95
2023-05-09T01:49:23.774Z,3.95
2023-05-09T01:50:23.860Z,3.89
2023-05-09T01:51:23.870Z,3.95
2023-05-09T01:52:23.882Z,3.91
2023-05-09T01:53:23.902Z,3.86
2023-05-09T01:54:23.940Z,3.86
2023-05-09T01:55:24.006Z,3.86
2023-05-09T01:56:24.053Z,3.85
2023-05-09T01:57:24.149Z,3.92
2023-05-09T01:58:24.128Z,3.88
2023-05-09T01:59:24.158Z,3.90
2023-05-09T02:00:24.249Z,3.84
2023-05-09T02:01:24.398Z,3.85
2023-05-09T02:02:24.472Z,3.87
2023-05-09T02:03:24.433Z,3.88
2023-05-09T02:04:24.414Z,3.88
2023-05-09T02:05:24.452Z,3.83
2023-05-09T02:06:24.495Z,3.84
2023-05-09T02:07:24.547Z,3.84
2023-05-09T02:08:24.536Z,3.82
2023-05-09T02:09:24.609Z,3.77
2023-05-09T02:10:24.618Z,3.81
2023-05-09T02:11:24.704Z,3.83
2023-05-09T02:12:24.699Z,3.83
2023-05-09T02:13:24.932Z,3.82
2023-05-09T02:14:24.757Z,3.78
2023-05-09T02:15:24.811Z,3.80
2023-05-09T02:16:24.886Z,3.79
2023-05-09T02:17:24.888Z,3.80
2023-05-09T02:18:24.927Z,3.79
2023-05-09T02:19:24.916Z,3.79
2023-05-09T02:20:24.955Z,3.79
2023-05-09T02:21:25.894Z,3.78
2023-05-09T02:22:25.041Z,3.77
2023-05-09T02:23:25.040Z,3.74
2023-05-09T02:24:25.081Z,3.74
2023-05-09T02:25:25.136Z,3.74
2023-05-09T02:26:25.175Z,3.72
2023-05-09T02:27:25.179Z,3.71
2023-05-09T02:28:25.224Z,3.70
2023-05-09T02:29:25.368Z,3.71
2023-05-09T02:30:25.502Z,3.69
2023-05-09T02:31:25.359Z,3.66
2023-05-09T02:32:25.362Z,3.68
2023-05-09T02:33:25.381Z,3.70
2023-05-09T02:34:25.412Z,3.71
2023-05-09T02:35:25.469Z,3.70
2023-05-09T02:36:25.502Z,3.70
2023-05-09T02:37:25.570Z,3.68
2023-05-09T02:38:25.556Z,3.66
2023-05-09T02:39:25.634Z,3.67
2023-05-09T02:40:25.639Z,3.67
2023-05-09T02:41:25.724Z,3.68
2023-05-09T02:42:25.716Z,3.68
2023-05-09T02:43:25.766Z,3.65
2023-05-09T02:44:25.776Z,3.64
2023-05-09T02:45:25.958Z,3.62
2023-05-09T02:46:25.979Z,3.62
2023-05-09T02:47:25.930Z,3.63
2023-05-09T02:48:25.941Z,3.62
2023-05-09T02:49:31.883Z,3.57
2023-05-09T02:50:27.008Z,3.57
2023-05-09T02:51:25.956Z,3.58
2023-05-09T02:52:25.951Z,3.60
2023-05-09T02:53:25.943Z,3.59
2023-05-09T02:54:25.956Z,3.64
2023-05-09T02:55:25.943Z,3.62
2023-05-09T02:56:25.968Z,3.61
2023-05-09T02:57:25.921Z,3.58
2023-05-09T02:58:25.935Z,3.58
2023-05-09T02:59:25.907Z,3.59
2023-05-09T03:00:25.932Z,3.60
2023-05-09T03:01:26.130Z,3.62
2023-05-09T03:02:26.060Z,3.65
2023-05-09T03:03:26.071Z,3.62
2023-05-09T03:04:26.058Z,3.61
2023-05-09T03:05:26.129Z,3.58
2023-05-09T03:06:26.133Z,3.59
2023-05-09T03:07:26.225Z,3.55
2023-05-09T03:08:26.218Z,3.55
2023-05-09T03:09:26.251Z,3.58
2023-05-09T03:10:26.266Z,3.52
2023-05-09T03:11:26.341Z,3.58
2023-05-09T03:12:26.391Z,3.56
2023-05-09T03:13:26.499Z,3.53
2023-05-09T03:14:26.456Z,3.53
2023-05-09T03:15:26.618Z,3.51
2023-05-09T03:16:26.632Z,3.50
2023-05-09T03:17:26.705Z,3.51
2023-05-09T03:18:26.659Z,3.46
2023-05-09T03:19:26.656Z,3.44
2023-05-09T03:20:26.702Z,3.47
2023-05-09T03:21:26.754Z,3.49
2023-05-09T03:22:26.861Z,3.49
2023-05-09T03:23:26.928Z,3.48
2023-05-09T03:24:26.962Z,3.44
2023-05-09T03:25:27.060Z,3.48
2023-05-09T03:26:27.093Z,3.47
2023-05-09T03:27:27.157Z,3.42
2023-05-09T03:28:27.166Z,3.41
2023-05-09T03:29:27.232Z,3.45
2023-05-09T03:30:27.290Z,3.41
2023-05-09T03:31:27.305Z,3.42
2023-05-09T03:32:27.434Z,3.41
2023-05-09T03:33:27.497Z,3.42
2023-05-09T03:34:27.446Z,3.42
2023-05-09T03:35:27.494Z,3.39
2023-05-09T03:36:27.570Z,3.37
2023-05-09T03:37:27.607Z,3.40
2023-05-09T03:38:27.683Z,3.47
2023-05-09T03:39:27.715Z,3.36
2023-05-09T03:40:27.767Z,3.36
2023-05-09T03:41:27.806Z,3.38
2023-05-09T03:42:27.889Z,3.37
2023-05-09T03:43:27.888Z,3.36
2023-05-09T03:44:27.934Z,3.43
2023-05-09T03:45:27.983Z,3.39
2023-05-09T03:46:28.052Z,3.40
2023-05-09T03:47:28.138Z,3.32
2023-05-09T03:48:28.122Z,3.33
2023-05-09T03:49:28.215Z,3.38
2023-05-09T03:50:28.174Z,3.36
2023-05-09T03:51:28.226Z,3.35
2023-05-09T03:52:28.251Z,3.30
2023-05-09T03:53:28.307Z,3.29
2023-05-09T03:54:28.351Z,3.33
2023-05-09T03:55:28.392Z,3.28
2023-05-09T03:56:28.415Z,3.28
2023-05-09T03:57:28.529Z,3.26
2023-05-09T03:58:28.497Z,3.32
2023-05-09T03:59:28.620Z,3.29
2023-05-09T04:00:28.582Z,3.29
2023-05-09T04:01:28.623Z,3.26
2023-05-09T04:02:28.768Z,3.24
2023-05-09T04:03:28.802Z,3.25
2023-05-09T04:04:28.811Z,3.21
2023-05-09T04:05:28.941Z,3.22
2023-05-09T04:06:28.902Z,3.20
2023-05-09T04:07:28.942Z,3.14
2023-05-09T04:08:28.991Z,3.12
2023-05-09T04:09:29.046Z,3.05
2023-05-09T04:10:29.096Z,3.01
2023-05-09T04:11:29.149Z,2.94
2023-05-09T04:12:29.171Z,2.93
2023-05-09T04:13:29.274Z,2.89
2023-05-09T04:14:29.222Z,2.82
2023-05-09T04:15:29.347Z,2.78
2023-05-09T04:16:29.368Z,2.73
2023-05-09T04:17:29.371Z,2.64
2023-05-09T04:18:29.403Z,2.63
2023-05-09T04:19:29.427Z,2.64
2023-05-09T04:20:29.445Z,2.59
2023-05-09T04:21:29.578Z,2.55
2023-05-09T04:22:29.532Z,2.53
2023-05-09T04:23:29.571Z,2.50
2023-05-09T04:24:29.579Z,2.50
2023-05-09T04:25:29.615Z,2.49
2023-05-09T04:26:29.634Z,2.44
2023-05-09T04:27:29.702Z,2.41
2023-05-09T04:28:29.738Z,2.39
2023-05-09T04:29:29.751Z,2.38
2023-05-09T04:30:29.796Z,2.41
2023-05-09T04:31:29.886Z,2.37
2023-05-09T04:32:29.918Z,2.31
2023-05-09T04:33:29.968Z,2.30
2023-05-09T04:34:30.046Z,2.29
2023-05-09T04:35:30.095Z,2.26
2023-05-09T04:36:30.131Z,2.28
2023-05-09T04:37:30.229Z,2.26
2023-05-09T04:38:30.208Z,2.24
2023-05-09T04:39:30.249Z,2.27
2023-05-09T04:40:30.336Z,2.22
2023-05-09T04:41:30.339Z,2.21
2023-05-09T04:42:30.404Z,2.22
2023-05-09T04:43:30.450Z,2.23
2023-05-09T04:44:30.520Z,2.21
2023-05-09T04:45:30.551Z,2.20
2023-05-09T04:46:30.642Z,2.20
2023-05-09T04:47:30.664Z,2.20
2023-05-09T04:48:30.645Z,2.19
2023-05-09T04:49:30.718Z,2.19
2023-05-09T04:50:30.761Z,2.19
2023-05-09T04:51:30.827Z,2.23
2023-05-09T04:52:30.893Z,2.22
2023-05-09T04:53:31.018Z,2.19
2023-05-09T04:54:30.996Z,2.18
2023-05-09T04:55:31.037Z,2.19
2023-05-09T04:56:31.112Z,2.18
2023-05-09T04:57:31.137Z,2.19
2023-05-09T04:58:31.220Z,2.21
2023-05-09T04:59:31.222Z,2.18
2023-05-09T05:00:31.243Z,2.17
2023-05-09T05:01:31.369Z,2.17
2023-05-09T05:02:31.383Z,2.18
2023-05-09T05:03:31.418Z,2.15
2023-05-09T05:04:31.429Z,2.16
2023-05-09T05:05:33.683Z,2.16
2023-05-09T05:06:31.475Z,2.19
2023-05-09T05:07:31.448Z,2.17
2023-05-09T05:08:31.452Z,2.16
2023-05-09T05:09:31.556Z,2.13
2023-05-09T05:10:31.422Z,2.14
2023-05-09T05:11:31.387Z,2.14
2023-05-09T05:12:31.390Z,2.15
2023-05-09T05:13:31.398Z,2.12
2023-05-09T05:14:31.390Z,2.12
2023-05-09T05:15:31.401Z,2.10
2023-05-09T05:16:31.402Z,2.11
2023-05-09T05:17:31.426Z,2.11
2023-05-09T05:18:31.368Z,2.12
2023-05-09T05:19:31.364Z,2.09
2023-05-09T05:20:31.378Z,2.11
2023-05-09T05:21:31.332Z,2.10
2023-05-09T05:22:32.793Z,2.10
2023-05-09T05:23:31.341Z,2.09
2023-05-09T05:24:31.351Z,2.08
2023-05-09T05:25:31.403Z,2.08
2023-05-09T05:26:31.303Z,2.09
2023-05-09T05:27:31.337Z,2.05
2023-05-09T05:28:31.332Z,2.06
2023-05-09T05:29:31.264Z,2.05
2023-05-09T05:30:34.008Z,2.05
2023-05-09T05:31:31.281Z,2.11
2023-05-09T05:32:31.318Z,2.08
2023-05-09T05:33:31.985Z,2.16
2023-05-09T05:34:31.313Z,2.38
2023-05-09T05:35:31.285Z,2.48
2023-05-09T05:36:31.242Z,2.54
2023-05-09T05:37:31.247Z,2.70
2023-05-09T05:38:31.246Z,2.86
2023-05-09T05:39:31.202Z,3.05
2023-05-09T05:40:31.558Z,3.05
2023-05-09T05:41:31.291Z,3.02
2023-05-09T05:42:31.198Z,2.93
2023-05-09T05:43:31.176Z,3.04
2023-05-09T05:44:31.171Z,3.18
2023-05-09T05:45:31.244Z,3.32
2023-05-09T05:46:31.153Z,3.62
2023-05-09T05:47:31.207Z,3.83
2023-05-09T05:48:31.168Z,3.98
2023-05-09T05:49:31.183Z,4.09
2023-05-09T05:50:31.209Z,4.06
2023-05-09T05:51:31.118Z,4.05
2023-05-09T05:52:31.128Z,4.00
2023-05-09T05:53:32.696Z,4.05
2023-05-09T05:54:31.132Z,4.06
2023-05-09T05:55:31.560Z,4.22
2023-05-09T05:56:31.130Z,4.26
2023-05-09T05:57:31.128Z,4.27
2023-05-09T05:58:31.089Z,4.30
2023-05-09T05:59:31.108Z,4.30
2023-05-09T06:00:31.142Z,4.31
2023-05-09T06:01:31.099Z,4.12
2023-05-09T06:02:31.149Z,4.08
2023-05-09T06:03:31.155Z,4.06
2023-05-09T06:04:31.031Z,4.01
2023-05-09T06:05:31.051Z,3.98
2023-05-09T06:06:31.021Z,3.87
2023-05-09T06:07:31.020Z,3.89
2023-05-09T06:08:31.047Z,3.98
2023-05-09T06:09:30.986Z,4.09
2023-05-09T06:10:31.033Z,4.12
2023-05-09T06:11:31.022Z,4.25
2023-05-09T06:12:31.488Z,4.34
2023-05-09T06:13:31.110Z,4.20
2023-05-09T06:14:30.959Z,4.34
2023-05-09T06:15:30.979Z,4.37
2023-05-09T06:16:31.001Z,4.28
2023-05-09T06:17:30.970Z,4.23
2023-05-09T06:18:31.061Z,4.15
2023-05-09T06:19:30.930Z,4.08
2023-05-09T06:20:30.944Z,3.93
2023-05-09T06:21:30.977Z,3.89
2023-05-09T06:22:30.931Z,3.88
2023-05-09T06:23:30.929Z,3.96
2023-05-09T06:24:35.731Z,3.96
2023-05-09T06:25:31.882Z,3.97
2023-05-09T06:26:30.906Z,3.97
2023-05-09T06:27:30.867Z,3.99
2023-05-09T06:28:30.900Z,3.98
2023-05-09T06:29:31.041Z,4.01
2023-05-09T06:30:30.864Z,3.96
2023-05-09T06:31:30.949Z,3.95
2023-05-09T06:32:30.950Z,3.88
2023-05-09T06:33:30.873Z,3.94
2023-05-09T06:34:30.867Z,3.97
2023-05-09T06:35:31.083Z,3.85
2023-05-09T06:36:30.852Z,3.91
2023-05-09T06:37:30.928Z,3.72
2023-05-09T06:38:30.825Z,3.64
2023-05-09T06:39:30.793Z,3.70
2023-05-09T06:40:30.797Z,3.48
2023-05-09T06:41:30.842Z,3.32
2023-05-09T06:42:30.778Z,3.09
2023-05-09T06:43:30.804Z,3.05
2023-05-09T06:44:30.832Z,2.91
2023-05-09T06:45:30.953Z,2.87
2023-05-09T06:46:30.811Z,2.64
2023-05-09T06:47:30.829Z,2.54
2023-05-09T06:48:30.757Z,2.50
2023-05-09T06:49:30.782Z,2.78
2023-05-09T06:50:32.770Z,2.83
2023-05-09T06:51:30.744Z,2.93
2023-05-09T06:52:30.781Z,2.99
2023-05-09T06:53:30.762Z,3.05
2023-05-09T06:54:30.799Z,3.11
2023-05-09T06:55:30.816Z,3.21
2023-05-09T06:56:30.818Z,3.28
2023-05-09T06:57:30.812Z,3.36
2023-05-09T06:58:31.104Z,3.38
2023-05-09T06:59:30.845Z,3.38
2023-05-09T07:00:31.042Z,3.42
2023-05-09T07:01:30.988Z,3.44
2023-05-09T07:02:30.925Z,3.43
2023-05-09T07:03:30.906Z,3.37
2023-05-09T07:04:30.944Z,3.35
2023-05-09T07:05:30.999Z,3.40
2023-05-09T07:06:30.916Z,3.38
2023-05-09T07:07:30.932Z,3.50
2023-05-09T07:08:30.955Z,3.52
2023-05-09T07:09:31.522Z,3.60
2023-05-09T07:10:31.056Z,3.55
2023-05-09T07:11:31.073Z,3.65
2023-05-09T07:12:31.095Z,3.70
2023-05-09T07:13:31.071Z,3.65
2023-05-09T07:14:31.087Z,3.72
2023-05-09T07:15:41.397Z,3.77
2023-05-09T07:16:32.104Z,3.78
2023-05-09T07:17:31.147Z,3.81
2023-05-09T07:18:31.075Z,3.83
2023-05-09T07:19:31.031Z,3.86
2023-05-09T07:20:31.033Z,4.08
2023-05-09T07:21:31.036Z,4.08
2023-05-09T07:22:32.129Z,4.16
2023-05-09T07:23:31.012Z,4.09
2023-05-09T07:24:31.061Z,4.17
2023-05-09T07:25:31.566Z,4.23
2023-05-09T07:26:31.167Z,4.42
2023-05-09T07:27:31.207Z,4.41
2023-05-09T07:28:31.273Z,4.51
2023-05-09T07:29:31.321Z,4.30
2023-05-09T07:30:31.429Z,4.42
2023-05-09T07:31:31.439Z,4.39
2023-05-09T07:32:31.557Z,4.42
2023-05-09T07:33:31.618Z,4.44
2023-05-09T07:34:31.561Z,4.37
2023-05-09T07:35:32.055Z,4.48
2023-05-09T07:36:33.620Z,4.31
2023-05-09T07:37:31.629Z,4.57
2023-05-09T07:38:31.624Z,4.42
2023-05-09T07:39:31.690Z,4.39
2023-05-09T07:40:31.643Z,4.38
2023-05-09T07:41:32.057Z,4.24
2023-05-09T07:42:31.616Z,4.35
2023-05-09T07:43:31.601Z,4.29
2023-05-09T07:44:31.588Z,4.11
2023-05-09T07:45:31.632Z,4.29
2023-05-09T07:46:32.074Z,4.25
2023-05-09T07:47:31.594Z,4.17
2023-05-09T07:48:31.589Z,4.24
2023-05-09T07:49:31.722Z,4.16
2023-05-09T07:50:31.586Z,4.05
2023-05-09T07:51:32.052Z,3.99
2023-05-09T07:52:31.547Z,3.91
2023-05-09T07:53:31.537Z,3.78
2023-05-09T07:54:31.517Z,3.92
2023-05-09T07:55:31.521Z,3.74
2023-05-09T07:56:31.579Z,3.77
2023-05-09T07:57:31.568Z,3.84
2023-05-09T07:58:31.534Z,3.81
2023-05-09T07:59:31.506Z,3.67
2023-05-09T08:00:31.496Z,3.77
2023-05-09T08:01:31.502Z,3.88
2023-05-09T08:02:31.532Z,3.67
2023-05-09T08:03:31.609Z,3.68
2023-05-09T08:04:31.500Z,3.77
2023-05-09T08:05:31.561Z,3.75
2023-05-09T08:06:31.481Z,3.77
2023-05-09T08:07:31.450Z,3.72
2023-05-09T08:08:31.437Z,3.75
2023-05-09T08:09:31.424Z,3.72
2023-05-09T08:10:31.378Z,3.73
2023-05-09T08:11:31.399Z,3.69
2023-05-09T08:12:32.016Z,3.64
2023-05-09T08:13:31.650Z,3.42
2023-05-09T08:14:31.401Z,3.37
2023-05-09T08:15:31.396Z,3.33
2023-05-09T08:16:31.383Z,3.40
2023-05-09T08:17:31.421Z,3.35
2023-05-09T08:18:31.445Z,3.34
2023-05-09T08:19:31.345Z,3.19
2023-05-09T08:20:31.429Z,3.17
2023-05-09T08:21:31.458Z,3.24
2023-05-09T08:22:31.374Z,3.21
2023-05-09T08:23:31.408Z,3.10
2023-05-09T08:24:31.454Z,3.38
2023-05-09T08:25:31.582Z,3.42
2023-05-09T08:26:32.294Z,3.30
2023-05-09T08:27:32.610Z,3.36
2023-05-09T08:28:32.572Z,2.80
2023-05-09T08:29:31.756Z,2.55
2023-05-09T08:30:33.060Z,2.16
2023-05-09T08:31:31.855Z,2.10
2023-05-09T08:32:31.780Z,1.82
2023-05-09T08:33:31.808Z,1.70
2023-05-09T08:34:31.782Z,1.56
2023-05-09T08:35:31.852Z,1.40
2023-05-09T08:36:31.821Z,1.37
2023-05-09T08:37:31.991Z,1.29
2023-05-09T08:38:31.910Z,1.17
2023-05-09T08:39:31.952Z,1.13
2023-05-09T08:40:31.950Z,1.09
2023-05-09T08:41:32.086Z,1.14
2023-05-09T08:42:32.018Z,1.02
2023-05-09T08:43:32.181Z,1.10
2023-05-09T08:44:32.646Z,1.34
2023-05-09T08:45:32.138Z,1.36
2023-05-09T08:46:32.266Z,1.34
2023-05-09T08:47:32.262Z,1.18
2023-05-09T08:48:34.028Z,1.24
2023-05-09T08:49:32.272Z,1.25
2023-05-09T08:50:32.275Z,1.25
2023-05-09T08:51:33.483Z,1.30
2023-05-09T08:52:32.312Z,1.40
2023-05-09T08:53:32.377Z,1.40
2023-05-09T08:54:32.557Z,1.30
2023-05-09T08:55:32.584Z,1.32
2023-05-09T08:56:32.299Z,1.21
2023-05-09T08:57:32.238Z,1.17
2023-05-09T08:58:34.149Z,1.08
2023-05-09T08:59:32.645Z,1.17
2023-05-09T09:00:32.210Z,1.13
2023-05-09T09:01:32.229Z,1.02
2023-05-09T09:02:32.275Z,1.11
2023-05-09T09:03:32.237Z,1.15
2023-05-09T09:04:32.225Z,1.24
2023-05-09T09:05:41.426Z,1.16
2023-05-09T09:06:33.200Z,1.16
2023-05-09T09:07:32.282Z,1.17
2023-05-09T09:08:32.176Z,1.13
2023-05-09T09:09:32.301Z,1.14
2023-05-09T09:10:32.685Z,1.21
2023-05-09T09:11:32.111Z,1.04
2023-05-09T09:12:32.114Z,1.17
2023-05-09T09:13:32.246Z,1.24
2023-05-09T09:14:32.264Z,1.22
2023-05-09T09:15:32.128Z,1.08
2023-05-09T09:16:32.710Z,1.11
2023-05-09T09:17:32.195Z,1.08
2023-05-09T09:18:32.210Z,0.93
2023-05-09T09:19:32.283Z,0.92
2023-05-09T09:20:32.304Z,0.95
2023-05-09T09:21:32.337Z,0.98
2023-05-09T09:22:32.384Z,1.07
2023-05-09T09:23:32.424Z,1.10
2023-05-09T09:24:32.605Z,1.11
2023-05-09T09:25:32.649Z,1.01
2023-05-09T09:26:32.608Z,0.95
2023-05-09T09:27:32.615Z,0.96
2023-05-09T09:28:32.671Z,0.94
2023-05-09T09:29:32.741Z,0.89
2023-05-09T09:30:32.793Z,0.74
2023-05-09T09:31:33.174Z,0.76
2023-05-09T09:32:33.083Z,0.85
2023-05-09T09:33:32.906Z,0.82
2023-05-09T09:34:32.984Z,0.91
2023-05-09T09:35:32.972Z,0.96
2023-05-09T09:36:33.155Z,0.99
2023-05-09T09:37:33.021Z,0.98
2023-05-09T09:38:33.045Z,0.96
2023-05-09T09:39:33.106Z,0.95
2023-05-09T09:40:33.247Z,0.97
2023-05-09T09:41:33.187Z,0.98
2023-05-09T09:42:33.183Z,1.00
2023-05-09T09:43:33.261Z,1.00
2023-05-09T09:44:33.680Z,0.96
2023-05-09T09:45:33.278Z,0.99
2023-05-09T09:46:33.365Z,0.95
2023-05-09T09:47:33.676Z,0.94
2023-05-09T09:48:33.389Z,0.93
2023-05-09T09:49:33.398Z,0.95
2023-05-09T09:50:33.497Z,0.92
2023-05-09T09:51:33.510Z,0.90
2023-05-09T09:52:33.445Z,0.89
2023-05-09T09:53:33.447Z,0.93
2023-05-09T09:54:33.453Z,0.91
2023-05-09T09:55:33.445Z,0.93
2023-05-09T09:56:33.485Z,0.91
2023-05-09T09:57:33.561Z,0.92
2023-05-09T09:58:33.476Z,0.95
2023-05-09T09:59:33.489Z,0.95
2023-05-09T10:00:33.498Z,0.91
2023-05-09T10:01:33.584Z,0.93
2023-05-09T10:02:33.553Z,0.88
2023-05-09T10:03:33.550Z,0.88
2023-05-09T10:04:33.515Z,0.89
2023-05-09T10:05:33.580Z,0.88
2023-05-09T10:06:33.595Z,0.87
2023-05-09T10:07:33.594Z,0.85
2023-05-09T10:08:33.625Z,0.85
2023-05-09T10:09:33.617Z,0.83
2023-05-09T10:10:33.639Z,0.86
2023-05-09T10:11:34.143Z,0.84
2023-05-09T10:12:33.660Z,0.89
2023-05-09T10:13:33.765Z,0.95
2023-05-09T10:14:35.128Z,0.95
2023-05-09T10:15:45.123Z,0.99
2023-05-09T10:16:43.787Z,0.99
2023-05-09T10:17:34.844Z,0.99
2023-05-09T10:18:33.906Z,1.00
2023-05-09T10:19:33.715Z,1.02
2023-05-09T10:20:33.686Z,1.02
2023-05-09T10:21:33.638Z,1.08
2023-05-09T10:22:33.652Z,1.06
2023-05-09T10:23:33.653Z,1.01
2023-05-09T10:24:33.625Z,0.99
2023-05-09T10:25:33.632Z,0.99
2023-05-09T10:26:33.634Z,0.98
2023-05-09T10:27:33.628Z,0.97
2023-05-09T10:28:33.588Z,1.00
2023-05-09T10:29:33.675Z,1.02
2023-05-09T10:30:34.082Z,1.02
2023-05-09T10:31:33.591Z,0.99
2023-05-09T10:32:33.611Z,1.05
2023-05-09T10:33:33.568Z,1.01
2023-05-09T10:34:33.579Z,1.04
2023-05-09T10:35:33.546Z,1.07
2023-05-09T10:36:33.553Z,1.09
2023-05-09T10:37:33.706Z,1.10
2023-05-09T10:38:33.530Z,1.07
2023-05-09T10:39:33.521Z,1.06
2023-05-09T10:40:33.531Z,1.11
2023-05-09T10:41:33.519Z,1.09
2023-05-09T10:42:33.533Z,1.14
2023-05-09T10:43:34.779Z,1.12
2023-05-09T10:44:33.663Z,1.15
2023-05-09T10:45:33.753Z,1.13
2023-05-09T10:46:33.718Z,1.14
2023-05-09T10:47:33.745Z,1.12
2023-05-09T10:48:33.730Z,1.10
2023-05-09T10:49:35.532Z,1.10
2023-05-09T10:50:33.729Z,1.09
2023-05-09T10:51:33.717Z,1.09
2023-05-09T10:52:33.712Z,1.13
2023-05-09T10:53:33.711Z,1.14
2023-05-09T10:54:33.744Z,1.18
2023-05-09T10:55:33.740Z,1.18
2023-05-09T10:56:33.671Z,1.16
2023-05-09T10:57:33.685Z,1.16
2023-05-09T10:58:33.761Z,1.17
2023-05-09T10:59:33.656Z,1.17
2023-05-09T11:00:33.676Z,1.17
2023-05-09T11:01:33.784Z,1.16
2023-05-09T11:02:33.635Z,1.12
2023-05-09T11:03:33.668Z,1.14
2023-05-09T11:04:33.617Z,1.14
2023-05-09T11:05:33.630Z,1.16
2023-05-09T11:06:33.590Z,1.14
2023-05-09T11:07:33.606Z,1.14
2023-05-09T11:08:33.606Z,1.13
2023-05-09T11:09:33.644Z,1.15
2023-05-09T11:10:33.561Z,1.12
2023-05-09T11:11:33.557Z,1.14
2023-05-09T11:12:33.585Z,1.16
2023-05-09T11:13:33.693Z,1.15
2023-05-09T11:14:33.563Z,1.14
2023-05-09T11:15:33.572Z,1.14
2023-05-09T11:16:33.566Z,1.11
2023-05-09T11:17:33.755Z,1.15
2023-05-09T11:18:33.513Z,1.13
2023-05-09T11:19:33.550Z,1.11
2023-05-09T11:20:33.704Z,1.12
2023-05-09T11:21:33.542Z,1.09
2023-05-09T11:22:33.652Z,1.12
2023-05-09T11:23:33.657Z,1.12
2023-05-09T11:24:33.688Z,1.11
2023-05-09T11:25:33.495Z,1.11
2023-05-09T11:26:33.484Z,1.11
2023-05-09T11:27:33.480Z,1.11
2023-05-09T11:28:33.477Z,1.11
2023-05-09T11:29:33.487Z,1.10
2023-05-09T11:30:33.507Z,1.08
2023-05-09T11:31:33.555Z,1.12
2023-05-09T11:32:33.444Z,1.09
2023-05-09T11:33:33.429Z,1.09
2023-05-09T11:34:33.431Z,1.12
2023-05-09T11:35:33.442Z,1.11
2023-05-09T11:36:33.584Z,1.11
2023-05-09T11:37:33.466Z,1.11
2023-05-09T11:38:33.438Z,1.09
2023-05-09T11:39:33.383Z,1.11
2023-05-09T11:40:33.472Z,1.10
2023-05-09T11:41:33.367Z,1.08
2023-05-09T11:42:33.359Z,1.09
2023-05-09T11:43:33.341Z,1.09
2023-05-09T11:44:33.437Z,1.08
2023-05-09T11:45:33.531Z,1.11
2023-05-09T11:46:33.370Z,1.09
2023-05-09T11:47:33.409Z,1.07
2023-05-09T11:48:33.350Z,1.05
2023-05-09T11:49:33.432Z,1.04
2023-05-09T11:50:33.359Z,1.01
2023-05-09T11:51:33.281Z,1.03
2023-05-09T11:52:33.373Z,1.00
2023-05-09T11:53:33.322Z,0.99
2023-05-09T11:54:33.322Z,1.00
2023-05-09T11:55:33.282Z,0.99
2023-05-09T11:56:33.284Z,1.00
2023-05-09T11:57:33.259Z,1.01
2023-05-09T11:58:33.309Z,1.01
2023-05-09T11:59:33.247Z,0.97
2023-05-09T12:00:33.283Z,0.97
2023-05-09T12:01:33.224Z,1.00
2023-05-09T12:02:33.387Z,0.97
2023-05-09T12:03:33.298Z,0.96
2023-05-09T12:04:33.252Z,0.96
2023-05-09T12:05:33.233Z,0.94
2023-05-09T12:06:33.191Z,0.96
2023-05-09T12:07:33.193Z,0.92
2023-05-09T12:08:33.212Z,0.94
2023-05-09T12:09:33.182Z,0.94
2023-05-09T12:10:33.180Z,0.94
2023-05-09T12:11:33.167Z,0.92
2023-05-09T12:12:33.167Z,0.92
2023-05-09T12:13:33.191Z,0.90
2023-05-09T12:14:33.161Z,0.94
2023-05-09T12:15:33.105Z,0.92
2023-05-09T12:16:33.172Z,0.93
2023-05-09T12:17:33.199Z,0.92
2023-05-09T12:18:33.112Z,0.93
2023-05-09T12:19:33.109Z,0.92
2023-05-09T12:20:33.105Z,0.95
2023-05-09T12:21:33.176Z,0.92
2023-05-09T12:22:33.118Z,0.93
2023-05-09T12:23:33.151Z,0.93
2023-05-09T12:24:33.110Z,0.91
2023-05-09T12:25:33.082Z,0.92
2023-05-09T12:26:33.057Z,0.90
2023-05-09T12:27:33.117Z,0.94
2023-05-09T12:28:33.032Z,0.90
2023-05-09T12:29:33.104Z,0.87
2023-05-09T12:30:33.055Z,0.91
2023-05-09T12:31:33.132Z,0.90
2023-05-09T12:32:33.112Z,0.91
2023-05-09T12:33:33.004Z,0.89
2023-05-09T12:34:33.006Z,0.88
2023-05-09T12:35:33.049Z,0.89
2023-05-09T12:36:33.046Z,0.89
2023-05-09T12:37:33.071Z,0.88
2023-05-09T12:38:33.007Z,0.89
2023-05-09T12:39:32.973Z,0.85
2023-05-09T12:40:32.970Z,0.87
2023-05-09T12:41:37.332Z,0.83
2023-05-09T12:42:33.913Z,0.83
2023-05-09T12:43:32.952Z,0.84
2023-05-09T12:44:32.948Z,0.83
2023-05-09T12:45:32.979Z,0.83
2023-05-09T12:46:33.177Z,0.85
2023-05-09T12:47:32.928Z,0.85
2023-05-09T12:48:32.907Z,0.83
2023-05-09T12:49:32.935Z,0.81
2023-05-09T12:50:32.896Z,0.82
2023-05-09T12:51:32.941Z,0.83
2023-05-09T12:52:32.907Z,0.82
2023-05-09T12:53:32.984Z,0.83
2023-05-09T12:54:32.866Z,0.81
2023-05-09T12:55:33.054Z,0.80
2023-05-09T12:56:32.865Z,0.79
2023-05-09T12:57:32.922Z,0.79
2023-05-09T12:58:32.947Z,0.83
2023-05-09T12:59:32.954Z,0.81
2023-05-09T13:00:32.978Z,0.77
2023-05-09T13:01:33.198Z,0.79
2023-05-09T13:02:33.012Z,0.79
2023-05-09T13:03:32.977Z,0.82
2023-05-09T13:04:32.947Z,0.82
2023-05-09T13:05:32.930Z,0.79
2023-05-09T13:06:32.947Z,0.80
2023-05-09T13:07:32.936Z,0.77
2023-05-09T13:08:32.913Z,0.78
2023-05-09T13:09:32.969Z,0.76
2023-05-09T13:10:32.931Z,0.74
2023-05-09T13:11:32.913Z,0.75
2023-05-09T13:12:32.893Z,0.74
2023-05-09T13:13:32.945Z,0.77
2023-05-09T13:14:32.929Z,0.77
2023-05-09T13:15:32.883Z,0.77
2023-05-09T13:16:32.927Z,0.75
2023-05-09T13:17:32.895Z,0.75
2023-05-09T13:18:32.912Z,0.73